Hydro-Met Data Report Part 1
Issued by NWS Binghamton, NY

Home | Current Version | Previous Version | Text Only | Print | Product List | Glossary On
Versions: 1 2 3 4 5 6 7 8 9 10 11 12 13 14 15 16 17 18 19 20 21 22 23 24 25 26 27 28 29 30 31 32 33 34 35 36 37 38 39 40 41 42 43 44 45 46 47 48 49 50
000
SRUS51 KBGM 301408
RR1BGM

HYDROMETEOROLOGICAL DATA REPORT
NATIONAL WEATHER SERVICE BINGHAMTON NY

.A GNVN6 20150330 E DH0800 /HPIRZ 445.69 : GENEVA BCD
.A GNVN6 20150330 E DH0800 /PP 0.00 : GENEVA PRECIP
.A ICYN6 20150330 E DH0800 /HPIRZ 379.42 : ITHACA TERMINAL NGVD29
.A SCBN6 20150330 E DH0800 /QRIRZ 0.000 : LOCK CS-1 CAYUGA (MUD LOCK) DISCHARGE KCFS. (CFS = 0.000)
.A CAYN6 20150330 E DH0800 /HPIRZ 380.50 : LOCK CS-1 CAYUGA (MUD LOCK) UPPER GAGE EL. BCD
.A CAYN6 20150330 E DH0800 /PP 0.02 : LOCK CS-1 CAYUGA (MUD LOCK) PRECIP.
.A CLYN6 20150330 E DH0800 /HPIRZ 381.62 : LOCK E-26 CLYDE UPPER BCD 382.70
.A CYBN6 20150330 E DH0800 /HPIRZ 379.62 : LOCK E-26 CLYDE LOWER BCD 380.70
.A CLYN6 20150330 E DH0800 /QUIRZ 2.298 : CLYDE LOCK E-26 DISCHARGE KCFS. (CFS = 2298.04)
.A MAYN6 20150330 E DH0800 /HPIRZ 380.00 : MAYS POINT LOCK E-25 UPPER BCD 380.00
.A MAZN6 20150330 E DH0800 /HPIRZ 376.10 : MAYS POINT LOCK E-25 LOWER BCD 376.10
.A MAYN6 20150330 E DH0800 /PP 0.29 : MAYS POINT PRECIP 0.29
.A OWSN6 20150330 E DH0800 /QUIRZ 0.163 : OWASCO LAKE DISCHARGE KCFS. (CFS = 163.00)
.A CRXN6 20150330 E DH0800 /HPIRZ 374.72 : CROSS LAKE BCD 375.77
.A CRXN6 20150330 E DH0800 /PP 0.00 : CROSS LAKE PRECIP 0.00
.A BAAN6 20150330 E DH0800 /HPIRZ 373.52 :BALDWINSVILLE  E-24 UP BCD 374.60
.A BAXN6 20150330 E DH0800 /HPIRZ 363.82 :BALDWINSVILLE  E-24 LO BCD 364.90
.A BALN6 20150330 E DH0800 /HPIRZ M :BALDWINSVILLE USGS M FT
.A BALN6 20150330 E DH0800 /QUIRZ 4.76 :BALDWINSVILLE USGS DISCHARGE KCFS. (CFS = 4760.00)
.A BALN6 20150330 E DH0800 /PP 0.39 : BALWINSVILLE LOCK E-24 PRECIP 0.39
.A ONLN6 20150330 E DH0800 /HPIRZ 362.71 : ONONDAGA LAKE BCD 363.72
.A CLEN6 20150330 E DH0800 /HPIRZ 367.17 : CLEVELAND BCD 368.70
.A CLEN6 20150330 E DH0800 /PP M : CLEVELAND PRECIP #N/A
.A CAUN6 20150330 E DH0800 /HPIRZ M : BREWERTON LOCK E-23 UPPER BCD M
.A BWTN6 20150330 E DH0800 /HPIRZ 363.04 : BREWERTON LOCK E-23 LOWER BCD 364.10
.A BWTN6 20150330 E DH0800 /QRIRZ 2.800 : BREWERTON LOCK E-23 DISCHARGE KCFS. (CFS = 2800.00 )
.A BWTN6 20150330 E DH0800 /HPIRP 363.27 : BREWERTON USGS 363.27
.A BWTN6 20150330 E DH0800 /SF 0.00 : BREWERTON SNOWFALL 0.00
.A BWTN6 20150330 E DH0800 /PP 0.00 : BREWERTON PRECIP 0.00
.A PXAN6 20150330 E DH0800 /HPIRZ 362.65 : PHOENIX LOCK O-1 UPPER BCD 363.70
.A PXBN6 20150330 E DH0800 /HPIRZ 353.95 : PHOENIX LOCK O-1 LOWER BCD 355.00
.A PXAN6 20150330 E DH0800 /QUIRZ 8.916 : PHOENIX LOCK O-1 DISCHARGE KCFS. (CFS = 8916.00 )



USA.gov is the U.S. government's official web portal to all federal, state and local government web resources and services.